createdAt,value
2022-10-09T00:01:24.021Z,77.07
2022-10-09T00:03:52.724Z,76.98
2022-10-09T00:06:23.001Z,77.07
2022-10-09T00:08:50.431Z,77.28
2022-10-09T00:11:26.197Z,77.72
2022-10-09T00:13:54.713Z,77.98
2022-10-09T00:16:22.938Z,78.34
2022-10-09T00:18:51.057Z,78.15
2022-10-09T00:21:21.345Z,78.41
2022-10-09T00:23:49.240Z,78.40
2022-10-09T00:26:16.795Z,78.63
2022-10-09T00:28:43.881Z,79.09
2022-10-09T00:31:11.928Z,79.76
2022-10-09T00:33:39.703Z,80.15
2022-10-09T00:36:09.370Z,80.28
2022-10-09T00:38:36.632Z,80.51
2022-10-09T00:41:03.705Z,81.03
2022-10-09T00:43:43.492Z,80.91
2022-10-09T00:46:27.602Z,81.48
2022-10-09T00:49:12.715Z,82.00
2022-10-09T00:51:41.323Z,82.41
2022-10-09T00:54:11.791Z,82.77
2022-10-09T00:56:39.074Z,83.08
2022-10-09T00:59:07.027Z,82.93
2022-10-09T01:01:34.219Z,82.99
2022-10-09T01:04:01.177Z,82.71
2022-10-09T01:07:22.068Z,82.63
2022-10-09T01:10:05.885Z,82.90
2022-10-09T01:13:28.607Z,83.05
2022-10-09T01:16:10.103Z,83.10
2022-10-09T01:19:01.333Z,82.70
2022-10-09T01:21:52.505Z,82.19
2022-10-09T01:24:33.640Z,82.14
2022-10-09T01:27:28.357Z,81.48
2022-10-09T01:30:04.062Z,82.51
2022-10-09T01:32:38.829Z,83.02
2022-10-09T01:35:08.116Z,83.37
2022-10-09T01:37:37.115Z,82.72
2022-10-09T01:40:07.685Z,83.06
2022-10-09T01:42:34.790Z,83.20
2022-10-09T01:45:01.985Z,83.04
2022-10-09T01:47:29.011Z,83.46
2022-10-09T01:50:09.451Z,83.10
2022-10-09T01:52:52.055Z,82.79
2022-10-09T01:55:39.239Z,82.64
2022-10-09T01:58:22.662Z,83.14
2022-10-09T02:01:17.639Z,83.55
2022-10-09T02:03:49.049Z,83.33
2022-10-09T02:06:17.198Z,83.38
2022-10-09T02:08:47.134Z,83.63
2022-10-09T02:11:17.538Z,83.79
2022-10-09T02:13:47.843Z,83.93
2022-10-09T02:16:43.658Z,84.55
2022-10-09T02:19:39.891Z,84.45
2022-10-09T02:22:19.250Z,84.47
2022-10-09T02:24:46.964Z,84.29
2022-10-09T02:27:14.970Z,84.39
2022-10-09T02:29:43.754Z,84.37
2022-10-09T02:32:11.677Z,84.83
2022-10-09T02:34:38.982Z,84.93
2022-10-09T02:37:06.390Z,85.24
2022-10-09T02:39:33.291Z,85.04
2022-10-09T02:42:00.724Z,84.56
2022-10-09T02:44:27.806Z,84.24
2022-10-09T02:46:54.842Z,84.42
2022-10-09T02:49:22.245Z,84.52
2022-10-09T02:51:49.160Z,84.59
2022-10-09T02:54:16.069Z,84.75
2022-10-09T02:56:42.970Z,84.91
2022-10-09T02:59:10.394Z,85.82
2022-10-09T03:01:37.503Z,85.78
2022-10-09T03:04:04.950Z,86.02
2022-10-09T03:06:32.043Z,86.22
2022-10-09T03:08:59.060Z,86.29
2022-10-09T03:11:26.881Z,86.56
2022-10-09T03:13:54.783Z,86.82
2022-10-09T03:16:24.041Z,86.93
2022-10-09T03:18:52.244Z,87.28
2022-10-09T03:21:21.544Z,87.69
2022-10-09T03:23:49.734Z,88.04
2022-10-09T03:26:19.358Z,88.17
2022-10-09T03:28:48.733Z,88.37
2022-10-09T03:31:39.338Z,88.19
2022-10-09T03:34:04.936Z,88.04
2022-10-09T03:36:31.885Z,88.19
2022-10-09T03:38:58.787Z,88.16
2022-10-09T03:41:25.795Z,88.10
2022-10-09T03:43:52.672Z,88.36
2022-10-09T03:46:19.653Z,88.53
2022-10-09T03:48:46.696Z,88.41
2022-10-09T03:51:13.675Z,87.72
2022-10-09T03:53:40.590Z,88.33
2022-10-09T03:56:07.746Z,88.43
2022-10-09T03:58:34.743Z,88.58
2022-10-09T04:01:01.761Z,88.35
2022-10-09T04:03:29.169Z,88.52
2022-10-09T04:05:56.036Z,88.69
2022-10-09T04:08:23.025Z,88.45
2022-10-09T04:10:56.939Z,88.51
2022-10-09T04:13:23.941Z,88.13
2022-10-09T04:15:54.545Z,88.32
2022-10-09T04:18:22.119Z,88.15
2022-10-09T04:20:51.314Z,88.33
2022-10-09T04:23:19.382Z,88.95
2022-10-09T04:25:46.677Z,89.35
2022-10-09T04:28:14.012Z,89.15
2022-10-09T04:30:41.459Z,89.64
2022-10-09T04:33:12.686Z,89.87
2022-10-09T04:35:44.405Z,89.87
2022-10-09T04:38:11.403Z,89.98
2022-10-09T04:40:38.449Z,89.76
2022-10-09T04:43:05.498Z,90.07
2022-10-09T04:45:32.762Z,90.27
2022-10-09T04:48:00.149Z,90.34
2022-10-09T04:50:27.199Z,90.31
2022-10-09T04:53:00.359Z,90.70
2022-10-09T04:55:27.255Z,90.89
2022-10-09T04:57:54.193Z,90.90
2022-10-09T05:00:21.165Z,90.96
2022-10-09T05:02:48.563Z,90.63
2022-10-09T05:05:15.773Z,90.47
2022-10-09T05:07:42.708Z,90.29
2022-10-09T05:10:09.829Z,90.28
2022-10-09T05:12:36.745Z,90.35
2022-10-09T05:15:05.035Z,90.23
2022-10-09T05:17:32.074Z,90.18
2022-10-09T05:19:59.015Z,90.37
2022-10-09T05:22:25.910Z,90.54
2022-10-09T05:24:54.030Z,90.60
2022-10-09T05:27:20.979Z,90.82
2022-10-09T05:29:47.969Z,90.93
2022-10-09T05:32:15.113Z,90.79
2022-10-09T05:34:42.858Z,90.67
2022-10-09T05:37:09.902Z,90.75
2022-10-09T05:39:38.480Z,90.90
2022-10-09T05:42:05.846Z,91.09
2022-10-09T05:44:32.926Z,91.63
2022-10-09T05:46:59.863Z,91.39
2022-10-09T05:49:26.874Z,91.62
2022-10-09T05:51:54.318Z,91.94
2022-10-09T05:54:21.269Z,92.18
2022-10-09T05:56:48.333Z,91.47
2022-10-09T05:59:19.901Z,90.95
2022-10-09T06:01:51.881Z,90.67
2022-10-09T06:04:21.454Z,89.53
2022-10-09T06:06:49.161Z,89.40
2022-10-09T06:09:18.117Z,89.40
2022-10-09T06:11:45.340Z,88.87
2022-10-09T06:14:13.582Z,88.02
2022-10-09T06:16:44.990Z,87.83
2022-10-09T06:19:14.834Z,88.50
2022-10-09T06:21:42.633Z,88.63
2022-10-09T06:24:17.648Z,88.44
2022-10-09T06:26:44.648Z,89.24
2022-10-09T06:29:11.806Z,90.54
2022-10-09T06:31:38.992Z,91.15
2022-10-09T06:34:06.016Z,91.50
2022-10-09T06:36:35.217Z,90.89
2022-10-09T06:39:06.520Z,90.43
2022-10-09T06:41:33.939Z,91.46
2022-10-09T06:44:16.316Z,92.19
2022-10-09T06:46:45.084Z,92.52
2022-10-09T06:49:12.870Z,92.42
2022-10-09T06:51:39.999Z,93.04
2022-10-09T06:54:13.459Z,93.05
2022-10-09T06:56:40.899Z,92.93
2022-10-09T06:59:08.750Z,93.87
2022-10-09T07:01:35.746Z,93.41
2022-10-09T07:04:07.273Z,92.55
2022-10-09T07:06:38.029Z,89.74
2022-10-09T07:09:07.711Z,88.11
2022-10-09T07:11:36.938Z,87.89
2022-10-09T07:14:06.460Z,87.76
2022-10-09T07:16:38.822Z,87.90
2022-10-09T07:19:17.771Z,87.73
2022-10-09T07:21:47.198Z,86.79
2022-10-09T07:24:14.733Z,86.85
2022-10-09T07:26:44.538Z,86.91
2022-10-09T07:29:15.729Z,85.72
2022-10-09T07:31:42.652Z,84.17
2022-10-09T07:34:09.584Z,84.90
2022-10-09T07:36:36.781Z,85.85
2022-10-09T07:39:04.994Z,85.58
2022-10-09T07:41:32.199Z,84.67
2022-10-09T07:43:59.223Z,84.04
2022-10-09T07:46:33.049Z,80.53
2022-10-09T07:49:00.898Z,80.91
2022-10-09T07:51:29.519Z,80.66
2022-10-09T07:53:57.698Z,80.60
2022-10-09T07:56:29.620Z,80.94
2022-10-09T07:58:59.043Z,80.41
2022-10-09T08:01:29.881Z,80.46
2022-10-09T08:03:59.953Z,80.35
2022-10-09T08:06:27.843Z,79.14
2022-10-09T08:08:57.543Z,79.15
2022-10-09T08:11:25.777Z,79.37
2022-10-09T08:13:54.209Z,73.33
2022-10-09T08:16:22.645Z,74.51
2022-10-09T08:18:49.719Z,69.78
2022-10-09T08:21:18.954Z,70.23
2022-10-09T08:23:46.712Z,67.39
2022-10-09T08:26:16.268Z,69.89
2022-10-09T08:28:43.600Z,69.64
2022-10-09T08:31:15.691Z,71.28
2022-10-09T08:33:43.272Z,68.61
2022-10-09T08:36:12.419Z,68.95
2022-10-09T08:38:48.171Z,70.89
2022-10-09T08:41:52.893Z,69.70
2022-10-09T08:44:33.609Z,65.46
2022-10-09T08:47:26.348Z,64.17
2022-10-09T08:50:23.310Z,64.45
2022-10-09T08:52:59.035Z,63.58
2022-10-09T08:55:32.989Z,61.06
2022-10-09T08:58:05.881Z,60.44
2022-10-09T09:00:43.187Z,60.74
2022-10-09T09:03:43.035Z,62.03
2022-10-09T09:06:40.794Z,64.25
2022-10-09T09:09:51.445Z,63.50
2022-10-09T09:12:42.206Z,59.41
2022-10-09T09:15:59.974Z,59.22
2022-10-09T09:47:34.838Z,53.16
2022-10-09T09:50:06.228Z,53.26
2022-10-09T09:52:43.416Z,53.36
2022-10-09T09:55:29.161Z,52.24
2022-10-09T09:58:07.737Z,49.53
2022-10-09T10:00:35.883Z,50.47
2022-10-09T10:03:11.122Z,50.21
2022-10-09T10:05:39.235Z,49.43
2022-10-09T10:08:35.471Z,45.47
2022-10-09T10:11:06.713Z,47.43
2022-10-09T10:13:47.659Z,45.50
2022-10-09T10:16:21.681Z,45.98
2022-10-09T10:18:48.937Z,46.18
2022-10-09T10:21:19.048Z,46.22
2022-10-09T10:24:10.674Z,47.40
2022-10-09T10:26:51.415Z,44.88
2022-10-09T10:29:23.784Z,44.27
2022-10-09T10:32:29.476Z,43.92
2022-10-09T10:35:17.501Z,43.05
2022-10-09T10:38:14.142Z,40.23
2022-10-09T10:40:56.886Z,37.60
2022-10-09T10:44:02.194Z,38.66
2022-10-09T10:46:39.947Z,40.00
2022-10-09T10:49:11.689Z,40.99
2022-10-09T10:52:09.767Z,41.74
2022-10-09T10:54:41.075Z,40.44
2022-10-09T10:57:16.934Z,39.09
2022-10-09T11:00:11.184Z,39.30
2022-10-09T11:03:17.084Z,39.65
2022-10-09T11:05:53.973Z,37.58
2022-10-09T11:09:07.125Z,37.74
2022-10-09T11:11:48.016Z,36.90
2022-10-09T11:14:39.776Z,37.35
2022-10-09T11:21:00.486Z,35.56
2022-10-09T11:23:42.924Z,34.22
2022-10-09T11:26:42.257Z,34.66
2022-10-09T11:42:32.516Z,33.41
2022-10-09T11:48:16.877Z,31.54
2022-10-09T11:51:01.586Z,31.74
2022-10-09T11:53:31.847Z,30.76
2022-10-09T11:56:28.736Z,31.92
2022-10-09T11:59:06.477Z,30.95
2022-10-09T12:01:44.842Z,30.64
2022-10-09T12:04:54.011Z,30.93
2022-10-09T12:07:47.271Z,30.35
2022-10-09T12:10:34.142Z,30.22
2022-10-09T12:13:05.077Z,29.57
2022-10-09T12:15:54.947Z,29.21
2022-10-09T12:18:27.811Z,29.92
2022-10-09T12:20:56.628Z,29.89
2022-10-09T12:23:27.936Z,29.65
2022-10-09T12:25:56.980Z,28.10
2022-10-09T12:28:39.383Z,27.78
2022-10-09T12:31:18.797Z,28.46
2022-10-09T12:33:51.869Z,28.47
2022-10-09T12:36:29.769Z,29.18
2022-10-09T12:38:57.195Z,28.72
2022-10-09T12:41:30.386Z,28.59
2022-10-09T12:43:58.893Z,28.53
2022-10-09T12:46:32.008Z,27.83
2022-10-09T12:49:00.826Z,27.96
2022-10-09T12:51:30.205Z,28.38
2022-10-09T12:53:57.208Z,29.30
2022-10-09T12:56:29.901Z,29.32
2022-10-09T12:58:58.899Z,28.80
2022-10-09T13:01:26.621Z,29.50
2022-10-09T13:04:05.333Z,30.37
2022-10-09T13:06:50.594Z,30.60
2022-10-09T13:09:37.372Z,30.49
2022-10-09T13:12:22.924Z,29.65
2022-10-09T13:14:55.577Z,29.26
2022-10-09T13:17:33.753Z,28.19
2022-10-09T13:20:04.500Z,28.31
2022-10-09T13:22:35.187Z,28.31
2022-10-09T13:25:04.454Z,28.55
2022-10-09T13:27:35.159Z,28.33
2022-10-09T13:30:02.428Z,27.60
2022-10-09T13:32:29.471Z,27.52
2022-10-09T13:34:58.194Z,27.62
2022-10-09T13:37:26.806Z,27.77
2022-10-09T13:39:56.034Z,27.09
2022-10-09T13:42:26.552Z,26.42
2022-10-09T13:44:54.164Z,27.72
2022-10-09T13:47:24.665Z,28.31
2022-10-09T13:49:51.950Z,28.00
2022-10-09T13:52:18.947Z,28.30
2022-10-09T13:54:45.810Z,29.33
2022-10-09T13:57:12.911Z,29.52
2022-10-09T13:59:40.032Z,29.37
2022-10-09T14:02:07.436Z,30.54
2022-10-09T14:04:34.432Z,29.62
2022-10-09T14:07:01.362Z,29.06
2022-10-09T14:09:28.438Z,29.62
2022-10-09T14:11:55.429Z,29.68
2022-10-09T14:14:22.692Z,30.14
2022-10-09T14:16:50.920Z,30.39
2022-10-09T14:19:18.329Z,30.12
2022-10-09T14:21:47.004Z,30.41
2022-10-09T14:24:14.774Z,30.19
2022-10-09T14:26:41.736Z,31.25
2022-10-09T14:29:10.116Z,31.17
2022-10-09T14:31:37.296Z,30.59
2022-10-09T14:34:04.537Z,30.51
2022-10-09T14:36:31.960Z,29.53
2022-10-09T14:39:01.745Z,28.42
2022-10-09T14:41:32.140Z,28.64
2022-10-09T14:44:01.219Z,28.13
2022-10-09T14:46:29.740Z,28.57
2022-10-09T14:48:57.958Z,30.43
2022-10-09T14:51:26.975Z,31.36
2022-10-09T14:54:00.767Z,32.53
2022-10-09T14:56:28.281Z,32.72
2022-10-09T14:58:57.967Z,32.02
2022-10-09T15:01:24.908Z,32.91
2022-10-09T15:03:51.995Z,33.82
2022-10-09T15:06:24.025Z,33.13
2022-10-09T15:08:56.001Z,31.72
2022-10-09T15:11:23.500Z,32.41
2022-10-09T15:13:50.412Z,31.88
2022-10-09T15:16:19.155Z,32.14
2022-10-09T15:18:48.286Z,33.99
2022-10-09T15:21:23.750Z,36.16
2022-10-09T15:23:53.657Z,38.21
2022-10-09T15:26:20.531Z,39.62
2022-10-09T15:28:47.589Z,40.66
2022-10-09T15:31:35.384Z,41.98
2022-10-09T15:34:02.837Z,42.66
2022-10-09T15:36:33.484Z,43.43
2022-10-09T15:39:05.860Z,43.78
2022-10-09T15:41:35.475Z,44.56
2022-10-09T15:44:05.923Z,44.84
2022-10-09T15:46:32.968Z,45.07
2022-10-09T15:49:00.018Z,45.73
2022-10-09T15:51:27.105Z,46.03
2022-10-09T15:53:54.061Z,46.69
2022-10-09T15:56:23.800Z,47.10
2022-10-09T15:58:52.122Z,47.69
2022-10-09T16:01:19.894Z,48.54
2022-10-09T16:03:47.393Z,49.38
2022-10-09T16:06:17.704Z,49.67
2022-10-09T16:08:46.298Z,49.71
2022-10-09T16:11:17.929Z,50.54
2022-10-09T16:13:48.301Z,50.53
2022-10-09T16:16:21.739Z,51.56
2022-10-09T16:18:49.252Z,52.05
2022-10-09T16:21:28.135Z,52.97
2022-10-09T16:23:58.745Z,53.68
2022-10-09T16:26:26.488Z,54.25
2022-10-09T16:28:53.463Z,54.29
2022-10-09T16:31:28.767Z,54.98
2022-10-09T16:33:56.013Z,54.86
2022-10-09T16:36:23.576Z,55.43
2022-10-09T16:38:50.563Z,56.07
2022-10-09T16:41:20.061Z,56.36
2022-10-09T16:43:49.305Z,56.79
2022-10-09T16:46:25.364Z,58.04
2022-10-09T16:48:53.668Z,58.81
2022-10-09T16:51:32.234Z,60.69
2022-10-09T16:54:01.863Z,62.17
2022-10-09T16:56:34.600Z,62.99
2022-10-09T16:59:04.825Z,64.27
2022-10-09T17:01:32.625Z,65.67
2022-10-09T17:04:00.188Z,66.20
2022-10-09T17:06:27.906Z,66.34
2022-10-09T17:08:57.892Z,67.11
2022-10-09T17:11:26.799Z,68.16
2022-10-09T17:13:56.924Z,69.06
2022-10-09T17:16:26.525Z,69.72
2022-10-09T17:18:54.549Z,70.27
2022-10-09T17:21:21.609Z,71.13
2022-10-09T17:23:52.607Z,71.13
2022-10-09T17:26:19.536Z,72.00
2022-10-09T17:28:47.416Z,71.66
2022-10-09T17:31:17.544Z,71.92
2022-10-09T17:33:46.369Z,70.79
2022-10-09T17:36:19.133Z,71.33
2022-10-09T17:38:47.044Z,71.28
2022-10-09T17:41:15.317Z,72.36
2022-10-09T17:43:42.608Z,72.15
2022-10-09T17:46:09.757Z,72.27
2022-10-09T17:48:38.552Z,72.65
2022-10-09T17:51:05.814Z,72.79
2022-10-09T17:53:32.762Z,73.38
2022-10-09T17:56:03.451Z,73.04
2022-10-09T17:58:30.695Z,73.03
2022-10-09T18:00:57.807Z,73.88
2022-10-09T18:03:24.803Z,74.46
2022-10-09T18:05:51.800Z,75.20
2022-10-09T18:08:19.853Z,75.70
2022-10-09T18:10:47.045Z,75.77
2022-10-09T18:13:14.395Z,75.80
2022-10-09T18:15:43.171Z,75.37
2022-10-09T18:18:11.431Z,74.72
2022-10-09T18:20:39.668Z,74.27
2022-10-09T18:23:08.014Z,73.67
2022-10-09T18:25:36.082Z,73.57
2022-10-09T18:28:03.112Z,73.04
2022-10-09T18:30:30.057Z,73.10
2022-10-09T18:32:57.082Z,72.85
2022-10-09T18:35:25.616Z,72.64
2022-10-09T18:37:52.772Z,72.49
2022-10-09T18:40:19.826Z,73.22
2022-10-09T18:42:46.845Z,73.75
2022-10-09T18:45:14.787Z,73.89
2022-10-09T18:47:42.093Z,74.08
2022-10-09T18:50:12.465Z,73.98
2022-10-09T18:52:41.725Z,73.86
2022-10-09T18:55:12.469Z,73.72
2022-10-09T18:57:41.167Z,73.70
2022-10-09T19:00:09.642Z,73.48
2022-10-09T19:05:11.729Z,73.55
2022-10-09T19:07:38.644Z,73.86
2022-10-09T19:10:07.048Z,73.58
2022-10-09T19:12:34.168Z,73.55
2022-10-09T19:15:01.117Z,73.73
2022-10-09T19:17:28.169Z,74.62
2022-10-09T19:19:55.158Z,74.65
2022-10-09T19:22:24.039Z,74.82
2022-10-09T19:24:51.196Z,74.87
2022-10-09T19:27:18.204Z,74.82
2022-10-09T19:29:45.202Z,74.94
2022-10-09T19:32:12.092Z,74.95
2022-10-09T19:34:39.030Z,75.27
2022-10-09T19:39:37.883Z,75.46
2022-10-09T19:42:04.984Z,75.34
2022-10-09T19:44:31.913Z,75.56
2022-10-09T19:46:58.827Z,75.33
2022-10-09T19:49:25.789Z,75.28
2022-10-09T19:51:52.757Z,75.24
2022-10-09T19:54:19.638Z,75.51
2022-10-09T19:56:46.515Z,75.55
2022-10-09T19:59:13.450Z,75.16
2022-10-09T20:01:40.626Z,75.19
2022-10-09T20:04:09.932Z,75.68
2022-10-09T20:06:38.732Z,75.63
2022-10-09T20:09:07.170Z,75.62
2022-10-09T20:11:35.091Z,76.06
2022-10-09T20:14:02.969Z,77.52
2022-10-09T20:16:32.281Z,77.81
2022-10-09T20:19:03.187Z,77.41
2022-10-09T20:21:32.742Z,77.25
2022-10-09T20:24:01.250Z,77.28
2022-10-09T20:26:29.937Z,77.59
2022-10-09T20:28:57.294Z,78.15
2022-10-09T20:31:26.078Z,78.30
2022-10-09T20:33:54.672Z,78.51
2022-10-09T20:36:35.348Z,78.76
2022-10-09T20:39:05.796Z,78.87
2022-10-09T20:41:33.799Z,79.13
2022-10-09T20:44:02.206Z,79.51
2022-10-09T20:46:31.316Z,79.86
2022-10-09T20:48:59.704Z,80.89
2022-10-09T20:51:26.989Z,81.10
2022-10-09T20:53:57.183Z,81.62
2022-10-09T20:56:26.501Z,82.19
2022-10-09T20:58:54.953Z,82.59
2022-10-09T21:01:22.568Z,82.47
2022-10-09T21:03:49.912Z,82.06
2022-10-09T21:06:19.209Z,82.38
2022-10-09T21:08:46.648Z,82.69
2022-10-09T21:11:19.131Z,82.83
2022-10-09T21:13:46.970Z,83.09
2022-10-09T21:16:21.377Z,83.44
2022-10-09T21:18:52.772Z,83.77
2022-10-09T21:21:19.812Z,84.38
2022-10-09T21:23:50.879Z,84.27
2022-10-09T21:26:18.462Z,84.12
2022-10-09T21:28:45.815Z,84.12
2022-10-09T21:31:16.772Z,83.88
2022-10-09T21:33:43.779Z,83.55
2022-10-09T21:36:21.197Z,83.27
2022-10-09T21:38:48.309Z,83.51
2022-10-09T21:41:15.235Z,83.59
2022-10-09T21:43:42.091Z,83.84
2022-10-09T21:46:09.030Z,83.91
2022-10-09T21:48:35.957Z,84.87
2022-10-09T21:51:03.023Z,85.77
2022-10-09T21:53:29.918Z,85.74
2022-10-09T21:55:56.946Z,85.72
2022-10-09T21:58:23.863Z,85.52
2022-10-09T22:00:58.578Z,84.86
2022-10-09T22:03:27.722Z,85.08
2022-10-09T22:05:54.694Z,85.19
2022-10-09T22:08:22.067Z,85.22
2022-10-09T22:10:49.742Z,85.53
2022-10-09T22:13:18.279Z,85.47
2022-10-09T22:15:50.752Z,85.37
2022-10-09T22:18:18.658Z,85.92
2022-10-09T22:20:48.269Z,86.02
2022-10-09T22:23:16.145Z,86.37
2022-10-09T22:25:43.134Z,86.61
2022-10-09T22:28:10.323Z,86.51
2022-10-09T22:30:37.232Z,86.27
2022-10-09T22:33:04.458Z,86.35
2022-10-09T22:35:31.424Z,86.49
2022-10-09T22:37:58.362Z,86.57
2022-10-09T22:40:25.422Z,86.38
2022-10-09T22:42:52.895Z,86.45
2022-10-09T22:45:19.970Z,86.43
2022-10-09T22:47:48.012Z,86.78
2022-10-09T22:50:15.009Z,88.29
2022-10-09T22:52:42.069Z,87.86
2022-10-09T22:55:09.424Z,88.39
2022-10-09T22:57:36.406Z,89.93
2022-10-09T23:00:05.401Z,89.63
2022-10-09T23:02:32.373Z,90.12
2022-10-09T23:04:59.412Z,90.89
2022-10-09T23:07:26.378Z,91.32
2022-10-09T23:09:53.283Z,90.59
2022-10-09T23:12:20.191Z,90.22
2022-10-09T23:14:47.290Z,89.02
2022-10-09T23:17:14.347Z,87.85
2022-10-09T23:19:41.238Z,89.15
2022-10-09T23:22:08.159Z,89.51
2022-10-09T23:24:35.073Z,89.68
2022-10-09T23:27:02.043Z,90.08
2022-10-09T23:29:29.075Z,89.89
2022-10-09T23:31:56.017Z,90.29
2022-10-09T23:34:22.957Z,90.73
2022-10-09T23:36:49.904Z,91.14
2022-10-09T23:39:17.404Z,91.29
2022-10-09T23:41:44.481Z,91.88
2022-10-09T23:44:11.569Z,91.78
2022-10-09T23:46:38.505Z,91.52
2022-10-09T23:49:05.646Z,91.24
2022-10-09T23:51:32.605Z,90.98
2022-10-09T23:53:59.956Z,89.89
2022-10-09T23:56:35.940Z,89.63
2022-10-09T23:59:06.201Z,90.46
